sensor_id;sensor_type;location;lat;lon;timestamp;temperature;humidity
58582;DHT22;44361;51.476;5.700;2023-02-24T00:01:47;3.40;99.90
58582;DHT22;44361;51.476;5.700;2023-02-24T00:04:29;3.40;99.90
58582;DHT22;44361;51.476;5.700;2023-02-24T00:06:55;3.40;99.90
58582;DHT22;44361;51.476;5.700;2023-02-24T00:09:24;3.40;99.90
58582;DHT22;44361;51.476;5.700;2023-02-24T00:11:59;3.30;99.90
58582;DHT22;44361;51.476;5.700;2023-02-24T00:14:28;3.30;99.90
58582;DHT22;44361;51.476;5.700;2023-02-24T00:16:55;3.20;99.90
58582;DHT22;44361;51.476;5.700;2023-02-24T00:19:22;3.10;99.90
58582;DHT22;44361;51.476;5.700;2023-02-24T00:21:49;3.10;99.90
58582;DHT22;44361;51.476;5.700;2023-02-24T00:24:16;3.00;99.90
58582;DHT22;44361;51.476;5.700;2023-02-24T00:26:41;3.00;99.90
58582;DHT22;44361;51.476;5.700;2023-02-24T00:29:09;2.90;99.90
58582;DHT22;44361;51.476;5.700;2023-02-24T00:31:35;2.90;99.90
58582;DHT22;44361;51.476;5.700;2023-02-24T00:34:04;2.80;99.90
58582;DHT22;44361;51.476;5.700;2023-02-24T00:36:30;2.80;99.90
58582;DHT22;44361;51.476;5.700;2023-02-24T00:39:05;2.80;99.90
58582;DHT22;44361;51.476;5.700;2023-02-24T00:41:36;2.80;99.90
58582;DHT22;44361;51.476;5.700;2023-02-24T00:44:04;2.90;99.90
58582;DHT22;44361;51.476;5.700;2023-02-24T00:46:37;3.00;99.90
58582;DHT22;44361;51.476;5.700;2023-02-24T00:49:05;3.10;99.90
58582;DHT22;44361;51.476;5.700;2023-02-24T00:51:37;3.20;99.90
58582;DHT22;44361;51.476;5.700;2023-02-24T00:54:03;3.20;99.90
58582;DHT22;44361;51.476;5.700;2023-02-24T00:56:29;3.30;99.90
58582;DHT22;44361;51.476;5.700;2023-02-24T00:58:57;3.30;99.90
58582;DHT22;44361;51.476;5.700;2023-02-24T01:01:29;3.40;99.90
58582;DHT22;44361;51.476;5.700;2023-02-24T01:03:58;3.40;99.90
58582;DHT22;44361;51.476;5.700;2023-02-24T01:06:27;3.40;99.90
58582;DHT22;44361;51.476;5.700;2023-02-24T01:08:54;3.50;99.90
58582;DHT22;44361;51.476;5.700;2023-02-24T01:11:25;3.50;99.90
58582;DHT22;44361;51.476;5.700;2023-02-24T01:14:14;3.60;99.90
58582;DHT22;44361;51.476;5.700;2023-02-24T01:16:41;3.60;99.90
58582;DHT22;44361;51.476;5.700;2023-02-24T01:19:09;3.70;99.90
58582;DHT22;44361;51.476;5.700;2023-02-24T01:21:35;3.70;99.90
58582;DHT22;44361;51.476;5.700;2023-02-24T01:24:01;3.70;99.90
58582;DHT22;44361;51.476;5.700;2023-02-24T01:26:26;3.70;99.90
58582;DHT22;44361;51.476;5.700;2023-02-24T01:28:53;3.70;99.90
58582;DHT22;44361;51.476;5.700;2023-02-24T01:31:20;3.80;99.90
58582;DHT22;44361;51.476;5.700;2023-02-24T01:33:48;3.80;99.90
58582;DHT22;44361;51.476;5.700;2023-02-24T01:36:17;3.80;99.90
58582;DHT22;44361;51.476;5.700;2023-02-24T01:38:43;3.90;99.90
58582;DHT22;44361;51.476;5.700;2023-02-24T01:41:17;3.90;99.90
58582;DHT22;44361;51.476;5.700;2023-02-24T01:46:34;3.90;99.90
58582;DHT22;44361;51.476;5.700;2023-02-24T01:49:09;3.90;99.90
58582;DHT22;44361;51.476;5.700;2023-02-24T01:51:43;3.90;99.90
58582;DHT22;44361;51.476;5.700;2023-02-24T01:54:12;3.90;99.90
58582;DHT22;44361;51.476;5.700;2023-02-24T01:56:39;4.00;99.90
58582;DHT22;44361;51.476;5.700;2023-02-24T01:59:07;4.00;99.90
58582;DHT22;44361;51.476;5.700;2023-02-24T02:01:34;4.00;99.90
58582;DHT22;44361;51.476;5.700;2023-02-24T02:04:17;3.90;99.90
58582;DHT22;44361;51.476;5.700;2023-02-24T02:06:46;4.00;99.90
58582;DHT22;44361;51.476;5.700;2023-02-24T02:09:13;4.00;99.90
58582;DHT22;44361;51.476;5.700;2023-02-24T02:11:40;4.00;99.90
58582;DHT22;44361;51.476;5.700;2023-02-24T02:14:06;4.00;99.90
58582;DHT22;44361;51.476;5.700;2023-02-24T02:16:43;3.90;99.90
58582;DHT22;44361;51.476;5.700;2023-02-24T02:22:04;3.90;99.90
58582;DHT22;44361;51.476;5.700;2023-02-24T02:30:12;3.90;99.90
58582;DHT22;44361;51.476;5.700;2023-02-24T02:35:38;4.00;99.90
58582;DHT22;44361;51.476;5.700;2023-02-24T02:38:17;4.00;99.90
58582;DHT22;44361;51.476;5.700;2023-02-24T02:41:51;4.00;99.90
58582;DHT22;44361;51.476;5.700;2023-02-24T02:44:21;4.00;99.90
58582;DHT22;44361;51.476;5.700;2023-02-24T02:46:57;4.00;99.90
58582;DHT22;44361;51.476;5.700;2023-02-24T02:49:46;4.00;99.90
58582;DHT22;44361;51.476;5.700;2023-02-24T02:52:28;4.00;99.90
58582;DHT22;44361;51.476;5.700;2023-02-24T02:55:00;4.00;99.90
58582;DHT22;44361;51.476;5.700;2023-02-24T02:57:29;4.10;99.90
58582;DHT22;44361;51.476;5.700;2023-02-24T03:00:14;4.10;99.90
58582;DHT22;44361;51.476;5.700;2023-02-24T03:02:47;4.10;99.90
58582;DHT22;44361;51.476;5.700;2023-02-24T03:05:17;4.20;99.90
58582;DHT22;44361;51.476;5.700;2023-02-24T03:07:49;4.20;99.90
58582;DHT22;44361;51.476;5.700;2023-02-24T03:10:19;4.10;99.90
58582;DHT22;44361;51.476;5.700;2023-02-24T03:12:51;4.10;99.90
58582;DHT22;44361;51.476;5.700;2023-02-24T03:15:20;4.10;99.90
58582;DHT22;44361;51.476;5.700;2023-02-24T03:17:51;4.10;99.90
58582;DHT22;44361;51.476;5.700;2023-02-24T03:20:32;4.10;99.90
58582;DHT22;44361;51.476;5.700;2023-02-24T03:23:06;4.10;99.90
58582;DHT22;44361;51.476;5.700;2023-02-24T03:28:47;4.20;99.90
58582;DHT22;44361;51.476;5.700;2023-02-24T03:31:25;4.20;99.90
58582;DHT22;44361;51.476;5.700;2023-02-24T03:34:02;4.20;99.90
58582;DHT22;44361;51.476;5.700;2023-02-24T03:36:30;4.20;99.90
58582;DHT22;44361;51.476;5.700;2023-02-24T03:38:56;4.20;99.90
58582;DHT22;44361;51.476;5.700;2023-02-24T03:41:28;4.20;99.90
58582;DHT22;44361;51.476;5.700;2023-02-24T03:43:55;4.30;99.90
58582;DHT22;44361;51.476;5.700;2023-02-24T03:46:22;4.30;99.90
58582;DHT22;44361;51.476;5.700;2023-02-24T03:48:56;4.20;99.90
58582;DHT22;44361;51.476;5.700;2023-02-24T03:51:23;4.30;99.90
58582;DHT22;44361;51.476;5.700;2023-02-24T03:54:14;4.30;99.90
58582;DHT22;44361;51.476;5.700;2023-02-24T03:59:49;4.20;99.90
58582;DHT22;44361;51.476;5.700;2023-02-24T04:02:25;4.20;99.90
58582;DHT22;44361;51.476;5.700;2023-02-24T04:05:11;4.30;99.90
58582;DHT22;44361;51.476;5.700;2023-02-24T04:07:44;4.20;99.90
58582;DHT22;44361;51.476;5.700;2023-02-24T04:10:35;4.30;99.90
58582;DHT22;44361;51.476;5.700;2023-02-24T04:15:38;4.20;99.90
58582;DHT22;44361;51.476;5.700;2023-02-24T04:18:21;4.20;99.90
58582;DHT22;44361;51.476;5.700;2023-02-24T04:20:47;4.20;99.90
58582;DHT22;44361;51.476;5.700;2023-02-24T04:23:21;4.10;99.90
58582;DHT22;44361;51.476;5.700;2023-02-24T04:25:50;4.10;99.90
58582;DHT22;44361;51.476;5.700;2023-02-24T04:28:16;3.90;99.90
58582;DHT22;44361;51.476;5.700;2023-02-24T04:30:49;3.90;99.90
58582;DHT22;44361;51.476;5.700;2023-02-24T04:33:16;3.80;99.90
58582;DHT22;44361;51.476;5.700;2023-02-24T04:35:44;3.70;99.90
58582;DHT22;44361;51.476;5.700;2023-02-24T04:38:11;3.70;99.90
58582;DHT22;44361;51.476;5.700;2023-02-24T04:40:37;3.70;99.90
58582;DHT22;44361;51.476;5.700;2023-02-24T04:43:05;3.70;99.90
58582;DHT22;44361;51.476;5.700;2023-02-24T04:45:32;3.70;99.90
58582;DHT22;44361;51.476;5.700;2023-02-24T04:47:59;3.70;99.90
58582;DHT22;44361;51.476;5.700;2023-02-24T04:50:34;3.80;99.90
58582;DHT22;44361;51.476;5.700;2023-02-24T04:53:03;3.80;99.90
58582;DHT22;44361;51.476;5.700;2023-02-24T04:55:35;3.80;99.90
58582;DHT22;44361;51.476;5.700;2023-02-24T04:58:11;3.80;99.90
58582;DHT22;44361;51.476;5.700;2023-02-24T05:00:38;3.80;99.90
58582;DHT22;44361;51.476;5.700;2023-02-24T05:03:06;3.80;99.90
58582;DHT22;44361;51.476;5.700;2023-02-24T05:05:32;3.80;99.90
58582;DHT22;44361;51.476;5.700;2023-02-24T05:08:00;3.90;99.90
58582;DHT22;44361;51.476;5.700;2023-02-24T05:10:38;3.90;99.90
58582;DHT22;44361;51.476;5.700;2023-02-24T05:13:05;3.90;99.90
58582;DHT22;44361;51.476;5.700;2023-02-24T05:15:37;4.00;99.90
58582;DHT22;44361;51.476;5.700;2023-02-24T05:18:05;4.00;99.90
58582;DHT22;44361;51.476;5.700;2023-02-24T05:20:35;4.00;99.90
58582;DHT22;44361;51.476;5.700;2023-02-24T05:23:26;4.00;99.90
58582;DHT22;44361;51.476;5.700;2023-02-24T05:25:53;4.00;99.90
58582;DHT22;44361;51.476;5.700;2023-02-24T05:28:20;4.10;99.90
58582;DHT22;44361;51.476;5.700;2023-02-24T05:30:50;4.00;99.90
58582;DHT22;44361;51.476;5.700;2023-02-24T05:33:17;4.00;99.90
58582;DHT22;44361;51.476;5.700;2023-02-24T05:35:47;4.10;99.90
58582;DHT22;44361;51.476;5.700;2023-02-24T05:38:13;4.10;99.90
58582;DHT22;44361;51.476;5.700;2023-02-24T05:40:39;4.00;99.90
58582;DHT22;44361;51.476;5.700;2023-02-24T05:43:11;4.10;99.90
58582;DHT22;44361;51.476;5.700;2023-02-24T05:45:42;4.10;99.90
58582;DHT22;44361;51.476;5.700;2023-02-24T05:48:08;4.10;99.90
58582;DHT22;44361;51.476;5.700;2023-02-24T05:50:34;4.10;99.90
58582;DHT22;44361;51.476;5.700;2023-02-24T05:53:00;4.00;99.90
58582;DHT22;44361;51.476;5.700;2023-02-24T05:55:27;4.10;99.90
58582;DHT22;44361;51.476;5.700;2023-02-24T05:57:53;4.10;99.90
58582;DHT22;44361;51.476;5.700;2023-02-24T06:00:21;4.00;99.90
58582;DHT22;44361;51.476;5.700;2023-02-24T06:02:50;4.00;99.90
58582;DHT22;44361;51.476;5.700;2023-02-24T06:05:17;3.90;99.90
58582;DHT22;44361;51.476;5.700;2023-02-24T06:07:58;3.90;99.90
58582;DHT22;44361;51.476;5.700;2023-02-24T06:10:33;3.80;99.90
58582;DHT22;44361;51.476;5.700;2023-02-24T06:13:00;3.80;99.90
58582;DHT22;44361;51.476;5.700;2023-02-24T06:15:27;3.80;99.90
58582;DHT22;44361;51.476;5.700;2023-02-24T06:17:53;3.80;99.90
58582;DHT22;44361;51.476;5.700;2023-02-24T06:20:22;3.70;99.90
58582;DHT22;44361;51.476;5.700;2023-02-24T06:22:48;3.70;99.90
58582;DHT22;44361;51.476;5.700;2023-02-24T06:25:19;3.60;99.90
58582;DHT22;44361;51.476;5.700;2023-02-24T06:27:45;3.60;99.90
58582;DHT22;44361;51.476;5.700;2023-02-24T06:30:11;3.60;99.90
58582;DHT22;44361;51.476;5.700;2023-02-24T06:32:36;3.70;99.90
58582;DHT22;44361;51.476;5.700;2023-02-24T06:35:02;3.80;99.90
58582;DHT22;44361;51.476;5.700;2023-02-24T06:37:28;3.80;99.90
58582;DHT22;44361;51.476;5.700;2023-02-24T06:39:54;3.80;99.90
58582;DHT22;44361;51.476;5.700;2023-02-24T06:42:20;3.80;99.90
58582;DHT22;44361;51.476;5.700;2023-02-24T06:44:46;3.80;99.90
58582;DHT22;44361;51.476;5.700;2023-02-24T06:47:13;3.80;99.90
58582;DHT22;44361;51.476;5.700;2023-02-24T06:49:39;3.80;99.90
58582;DHT22;44361;51.476;5.700;2023-02-24T06:52:04;3.70;99.90
58582;DHT22;44361;51.476;5.700;2023-02-24T06:54:30;3.70;99.90
58582;DHT22;44361;51.476;5.700;2023-02-24T06:57:00;3.60;99.90
58582;DHT22;44361;51.476;5.700;2023-02-24T06:59:28;3.70;99.90
58582;DHT22;44361;51.476;5.700;2023-02-24T07:01:55;3.60;99.90
58582;DHT22;44361;51.476;5.700;2023-02-24T07:04:21;3.70;99.90
58582;DHT22;44361;51.476;5.700;2023-02-24T07:06:58;3.70;99.90
58582;DHT22;44361;51.476;5.700;2023-02-24T07:09:27;3.70;99.90
58582;DHT22;44361;51.476;5.700;2023-02-24T07:11:54;3.70;99.90
58582;DHT22;44361;51.476;5.700;2023-02-24T07:14:26;3.60;99.90
58582;DHT22;44361;51.476;5.700;2023-02-24T07:16:52;3.60;99.90
58582;DHT22;44361;51.476;5.700;2023-02-24T07:19:25;3.60;99.90
58582;DHT22;44361;51.476;5.700;2023-02-24T07:21:55;3.70;99.90
58582;DHT22;44361;51.476;5.700;2023-02-24T07:24:25;3.70;99.90
58582;DHT22;44361;51.476;5.700;2023-02-24T07:26:59;3.80;99.90
58582;DHT22;44361;51.476;5.700;2023-02-24T07:29:26;3.80;99.90
58582;DHT22;44361;51.476;5.700;2023-02-24T07:31:52;3.90;99.90
58582;DHT22;44361;51.476;5.700;2023-02-24T07:34:21;3.90;99.90
58582;DHT22;44361;51.476;5.700;2023-02-24T07:36:52;4.00;99.90
58582;DHT22;44361;51.476;5.700;2023-02-24T07:39:20;4.00;99.90
58582;DHT22;44361;51.476;5.700;2023-02-24T07:41:51;4.10;99.90
58582;DHT22;44361;51.476;5.700;2023-02-24T07:44:18;4.10;99.90
58582;DHT22;44361;51.476;5.700;2023-02-24T07:46:44;4.20;99.90
58582;DHT22;44361;51.476;5.700;2023-02-24T07:49:15;4.20;99.90
58582;DHT22;44361;51.476;5.700;2023-02-24T07:51:42;4.20;99.90
58582;DHT22;44361;51.476;5.700;2023-02-24T07:54:09;4.30;99.90
58582;DHT22;44361;51.476;5.700;2023-02-24T07:56:36;4.30;99.90
58582;DHT22;44361;51.476;5.700;2023-02-24T07:59:11;4.30;99.90
58582;DHT22;44361;51.476;5.700;2023-02-24T08:01:40;4.40;99.90
58582;DHT22;44361;51.476;5.700;2023-02-24T08:04:15;4.40;99.90
58582;DHT22;44361;51.476;5.700;2023-02-24T08:06:41;4.40;99.90
58582;DHT22;44361;51.476;5.700;2023-02-24T08:09:15;4.50;99.90
58582;DHT22;44361;51.476;5.700;2023-02-24T08:11:51;4.50;99.90
58582;DHT22;44361;51.476;5.700;2023-02-24T08:14:24;4.50;99.90
58582;DHT22;44361;51.476;5.700;2023-02-24T08:16:54;4.60;99.90
58582;DHT22;44361;51.476;5.700;2023-02-24T08:19:25;4.70;99.90
58582;DHT22;44361;51.476;5.700;2023-02-24T08:21:52;4.70;99.90
58582;DHT22;44361;51.476;5.700;2023-02-24T08:24:22;4.70;99.90
58582;DHT22;44361;51.476;5.700;2023-02-24T08:26:55;4.70;99.90
58582;DHT22;44361;51.476;5.700;2023-02-24T08:29:35;4.80;99.90
58582;DHT22;44361;51.476;5.700;2023-02-24T08:32:06;4.80;99.90
58582;DHT22;44361;51.476;5.700;2023-02-24T08:34:34;4.90;99.90
58582;DHT22;44361;51.476;5.700;2023-02-24T08:36:59;5.00;99.90
58582;DHT22;44361;51.476;5.700;2023-02-24T08:39:26;5.00;99.90
58582;DHT22;44361;51.476;5.700;2023-02-24T08:41:57;5.00;99.90
58582;DHT22;44361;51.476;5.700;2023-02-24T08:44:23;5.10;99.90
58582;DHT22;44361;51.476;5.700;2023-02-24T08:46:54;5.20;99.90
58582;DHT22;44361;51.476;5.700;2023-02-24T08:49:21;5.20;99.90
58582;DHT22;44361;51.476;5.700;2023-02-24T08:51:50;5.30;99.90
58582;DHT22;44361;51.476;5.700;2023-02-24T08:54:20;5.30;99.90
58582;DHT22;44361;51.476;5.700;2023-02-24T08:56:53;5.30;99.90
58582;DHT22;44361;51.476;5.700;2023-02-24T08:59:26;5.40;99.90
58582;DHT22;44361;51.476;5.700;2023-02-24T09:02:12;5.50;99.90
58582;DHT22;44361;51.476;5.700;2023-02-24T09:05:00;5.60;99.90
58582;DHT22;44361;51.476;5.700;2023-02-24T09:07:29;5.60;99.90
58582;DHT22;44361;51.476;5.700;2023-02-24T09:10:00;5.80;99.90
58582;DHT22;44361;51.476;5.700;2023-02-24T09:12:27;5.90;99.90
58582;DHT22;44361;51.476;5.700;2023-02-24T09:14:59;6.10;99.90
58582;DHT22;44361;51.476;5.700;2023-02-24T09:17:32;6.20;99.70
58582;DHT22;44361;51.476;5.700;2023-02-24T09:20:15;6.20;99.00
58582;DHT22;44361;51.476;5.700;2023-02-24T09:23:00;6.20;99.10
58582;DHT22;44361;51.476;5.700;2023-02-24T09:25:29;6.00;98.60
58582;DHT22;44361;51.476;5.700;2023-02-24T09:28:24;6.10;99.10
58582;DHT22;44361;51.476;5.700;2023-02-24T09:30:55;6.00;98.70
58582;DHT22;44361;51.476;5.700;2023-02-24T09:33:25;6.00;99.30
58582;DHT22;44361;51.476;5.700;2023-02-24T09:35:59;5.90;99.70
58582;DHT22;44361;51.476;5.700;2023-02-24T09:41:20;5.80;99.90
58582;DHT22;44361;51.476;5.700;2023-02-24T09:44:14;5.90;99.90
58582;DHT22;44361;51.476;5.700;2023-02-24T09:46:56;5.90;99.90
58582;DHT22;44361;51.476;5.700;2023-02-24T09:49:29;5.90;99.90
58582;DHT22;44361;51.476;5.700;2023-02-24T09:52:09;6.10;99.90
58582;DHT22;44361;51.476;5.700;2023-02-24T09:54:41;6.10;99.90
58582;DHT22;44361;51.476;5.700;2023-02-24T09:57:21;6.20;99.90
58582;DHT22;44361;51.476;5.700;2023-02-24T10:00:04;6.30;99.70
58582;DHT22;44361;51.476;5.700;2023-02-24T10:03:05;6.20;99.70
58582;DHT22;44361;51.476;5.700;2023-02-24T10:05:57;6.00;99.90
58582;DHT22;44361;51.476;5.700;2023-02-24T10:08:39;5.90;99.90
58582;DHT22;44361;51.476;5.700;2023-02-24T10:11:09;5.90;99.80
58582;DHT22;44361;51.476;5.700;2023-02-24T10:13:52;5.80;99.50
58582;DHT22;44361;51.476;5.700;2023-02-24T10:16:20;5.80;99.80
58582;DHT22;44361;51.476;5.700;2023-02-24T10:19:05;5.80;99.90
58582;DHT22;44361;51.476;5.700;2023-02-24T10:22:05;5.80;99.90
58582;DHT22;44361;51.476;5.700;2023-02-24T10:24:48;5.80;99.90
58582;DHT22;44361;51.476;5.700;2023-02-24T10:27:31;5.80;99.90
58582;DHT22;44361;51.476;5.700;2023-02-24T10:32:49;6.00;99.90
58582;DHT22;44361;51.476;5.700;2023-02-24T10:35:19;6.00;99.90
58582;DHT22;44361;51.476;5.700;2023-02-24T10:37:45;6.10;99.90
58582;DHT22;44361;51.476;5.700;2023-02-24T10:40:12;6.20;99.90
58582;DHT22;44361;51.476;5.700;2023-02-24T10:42:42;6.30;99.90
58582;DHT22;44361;51.476;5.700;2023-02-24T10:45:22;6.50;99.90
58582;DHT22;44361;51.476;5.700;2023-02-24T10:47:54;6.30;99.90
58582;DHT22;44361;51.476;5.700;2023-02-24T10:50:32;6.20;99.90
58582;DHT22;44361;51.476;5.700;2023-02-24T10:53:28;6.10;99.90
58582;DHT22;44361;51.476;5.700;2023-02-24T10:56:12;6.20;99.90
58582;DHT22;44361;51.476;5.700;2023-02-24T10:59:15;6.30;99.90
58582;DHT22;44361;51.476;5.700;2023-02-24T11:02:20;6.40;99.90
58582;DHT22;44361;51.476;5.700;2023-02-24T11:04:59;6.40;99.90
58582;DHT22;44361;51.476;5.700;2023-02-24T11:07:41;6.50;99.90
58582;DHT22;44361;51.476;5.700;2023-02-24T11:10:23;6.60;99.90
58582;DHT22;44361;51.476;5.700;2023-02-24T11:12:58;6.80;99.90
58582;DHT22;44361;51.476;5.700;2023-02-24T11:15:44;6.60;99.80
58582;DHT22;44361;51.476;5.700;2023-02-24T11:18:31;6.50;99.90
58582;DHT22;44361;51.476;5.700;2023-02-24T11:21:05;6.40;99.90
58582;DHT22;44361;51.476;5.700;2023-02-24T11:23:41;6.40;99.90
58582;DHT22;44361;51.476;5.700;2023-02-24T11:26:15;6.40;99.90
58582;DHT22;44361;51.476;5.700;2023-02-24T11:28:49;6.50;99.90
58582;DHT22;44361;51.476;5.700;2023-02-24T11:31:33;6.50;99.90
58582;DHT22;44361;51.476;5.700;2023-02-24T11:34:17;6.40;99.90
58582;DHT22;44361;51.476;5.700;2023-02-24T11:39:44;6.20;99.90
58582;DHT22;44361;51.476;5.700;2023-02-24T11:42:15;6.20;99.90
58582;DHT22;44361;51.476;5.700;2023-02-24T11:44:58;6.20;99.90
58582;DHT22;44361;51.476;5.700;2023-02-24T11:47:33;6.20;99.90
58582;DHT22;44361;51.476;5.700;2023-02-24T11:50:20;6.10;99.90
58582;DHT22;44361;51.476;5.700;2023-02-24T11:52:48;6.10;99.90
58582;DHT22;44361;51.476;5.700;2023-02-24T11:55:39;6.00;99.90
58582;DHT22;44361;51.476;5.700;2023-02-24T12:00:56;5.90;99.90
58582;DHT22;44361;51.476;5.700;2023-02-24T12:03:39;5.80;99.90
58582;DHT22;44361;51.476;5.700;2023-02-24T12:06:17;5.70;99.90
58582;DHT22;44361;51.476;5.700;2023-02-24T12:08:47;5.70;99.90
58582;DHT22;44361;51.476;5.700;2023-02-24T12:11:33;5.70;99.90
58582;DHT22;44361;51.476;5.700;2023-02-24T12:16:42;5.70;99.90
58582;DHT22;44361;51.476;5.700;2023-02-24T12:19:36;5.80;99.90
58582;DHT22;44361;51.476;5.700;2023-02-24T12:22:13;5.80;99.90
58582;DHT22;44361;51.476;5.700;2023-02-24T12:24:41;5.90;99.90
58582;DHT22;44361;51.476;5.700;2023-02-24T12:29:52;5.90;99.90
58582;DHT22;44361;51.476;5.700;2023-02-24T12:32:59;5.80;99.90
58582;DHT22;44361;51.476;5.700;2023-02-24T12:35:32;5.90;99.90
58582;DHT22;44361;51.476;5.700;2023-02-24T12:38:47;5.90;99.90
58582;DHT22;44361;51.476;5.700;2023-02-24T12:41:33;5.90;99.90
58582;DHT22;44361;51.476;5.700;2023-02-24T12:44:29;5.90;99.90
58582;DHT22;44361;51.476;5.700;2023-02-24T12:47:05;5.90;99.90
58582;DHT22;44361;51.476;5.700;2023-02-24T12:52:33;6.00;99.90
58582;DHT22;44361;51.476;5.700;2023-02-24T12:58:15;6.10;99.90
58582;DHT22;44361;51.476;5.700;2023-02-24T13:12:51;6.00;99.90
58582;DHT22;44361;51.476;5.700;2023-02-24T13:15:22;6.00;99.90
58582;DHT22;44361;51.476;5.700;2023-02-24T13:17:49;5.90;99.90
58582;DHT22;44361;51.476;5.700;2023-02-24T13:20:27;5.90;99.90
58582;DHT22;44361;51.476;5.700;2023-02-24T13:22:53;5.90;99.90
58582;DHT22;44361;51.476;5.700;2023-02-24T13:25:23;6.00;99.90
58582;DHT22;44361;51.476;5.700;2023-02-24T13:33:05;5.90;99.90
58582;DHT22;44361;51.476;5.700;2023-02-24T13:35:34;5.90;99.90
58582;DHT22;44361;51.476;5.700;2023-02-24T13:38:09;5.90;99.90
58582;DHT22;44361;51.476;5.700;2023-02-24T13:40:35;5.90;99.90
58582;DHT22;44361;51.476;5.700;2023-02-24T13:43:01;5.90;99.90
58582;DHT22;44361;51.476;5.700;2023-02-24T13:45:36;5.90;99.90
58582;DHT22;44361;51.476;5.700;2023-02-24T13:48:29;5.90;99.90
58582;DHT22;44361;51.476;5.700;2023-02-24T13:56:52;5.80;99.90
58582;DHT22;44361;51.476;5.700;2023-02-24T14:00:02;5.80;99.90
58582;DHT22;44361;51.476;5.700;2023-02-24T14:02:29;5.80;99.90
58582;DHT22;44361;51.476;5.700;2023-02-24T14:04:57;5.80;99.90
58582;DHT22;44361;51.476;5.700;2023-02-24T14:07:27;5.80;99.90
58582;DHT22;44361;51.476;5.700;2023-02-24T14:09:57;5.70;99.90
58582;DHT22;44361;51.476;5.700;2023-02-24T14:12:28;5.80;99.90
58582;DHT22;44361;51.476;5.700;2023-02-24T14:14:56;6.00;99.90
58582;DHT22;44361;51.476;5.700;2023-02-24T14:17:55;6.20;99.90
58582;DHT22;44361;51.476;5.700;2023-02-24T14:20:21;6.30;99.90
58582;DHT22;44361;51.476;5.700;2023-02-24T14:22:51;6.30;99.90
58582;DHT22;44361;51.476;5.700;2023-02-24T14:25:20;6.20;99.90
58582;DHT22;44361;51.476;5.700;2023-02-24T14:27:49;6.20;99.90
58582;DHT22;44361;51.476;5.700;2023-02-24T14:30:37;6.20;99.90
58582;DHT22;44361;51.476;5.700;2023-02-24T14:33:05;6.40;99.90
58582;DHT22;44361;51.476;5.700;2023-02-24T14:35:44;6.40;99.90
58582;DHT22;44361;51.476;5.700;2023-02-24T14:38:31;6.50;99.90
58582;DHT22;44361;51.476;5.700;2023-02-24T14:40:58;6.60;99.90
58582;DHT22;44361;51.476;5.700;2023-02-24T14:43:23;6.60;99.90
58582;DHT22;44361;51.476;5.700;2023-02-24T14:45:50;6.70;99.90
58582;DHT22;44361;51.476;5.700;2023-02-24T14:48:25;6.60;99.90
58582;DHT22;44361;51.476;5.700;2023-02-24T14:50:52;6.50;99.90
58582;DHT22;44361;51.476;5.700;2023-02-24T14:53:21;6.50;99.90
58582;DHT22;44361;51.476;5.700;2023-02-24T14:55:50;6.40;99.90
58582;DHT22;44361;51.476;5.700;2023-02-24T14:58:45;6.40;99.90
58582;DHT22;44361;51.476;5.700;2023-02-24T15:01:28;6.50;99.90
58582;DHT22;44361;51.476;5.700;2023-02-24T15:03:57;6.70;99.90
58582;DHT22;44361;51.476;5.700;2023-02-24T15:06:27;6.80;99.90
58582;DHT22;44361;51.476;5.700;2023-02-24T15:09:03;7.10;99.90
58582;DHT22;44361;51.476;5.700;2023-02-24T15:11:32;7.30;99.90
58582;DHT22;44361;51.476;5.700;2023-02-24T15:14:03;7.30;99.90
58582;DHT22;44361;51.476;5.700;2023-02-24T15:16:40;7.30;99.90
58582;DHT22;44361;51.476;5.700;2023-02-24T15:19:25;7.20;99.90
58582;DHT22;44361;51.476;5.700;2023-02-24T15:21:52;7.10;99.90
58582;DHT22;44361;51.476;5.700;2023-02-24T15:24:28;6.90;99.90
58582;DHT22;44361;51.476;5.700;2023-02-24T15:26:56;6.80;99.90
58582;DHT22;44361;51.476;5.700;2023-02-24T15:29:25;6.60;99.90
58582;DHT22;44361;51.476;5.700;2023-02-24T15:31:57;6.50;99.90
58582;DHT22;44361;51.476;5.700;2023-02-24T15:34:34;6.50;99.90
58582;DHT22;44361;51.476;5.700;2023-02-24T15:37:23;6.50;99.90
58582;DHT22;44361;51.476;5.700;2023-02-24T15:39:51;6.40;99.90
58582;DHT22;44361;51.476;5.700;2023-02-24T15:42:30;6.40;99.90
58582;DHT22;44361;51.476;5.700;2023-02-24T15:45:00;6.40;99.90
58582;DHT22;44361;51.476;5.700;2023-02-24T15:47:29;6.40;99.90
58582;DHT22;44361;51.476;5.700;2023-02-24T15:49:57;6.50;99.90
58582;DHT22;44361;51.476;5.700;2023-02-24T15:52:25;6.40;99.90
58582;DHT22;44361;51.476;5.700;2023-02-24T15:54:52;6.40;99.90
58582;DHT22;44361;51.476;5.700;2023-02-24T15:57:18;6.40;99.90
58582;DHT22;44361;51.476;5.700;2023-02-24T15:59:45;6.50;99.90
58582;DHT22;44361;51.476;5.700;2023-02-24T16:02:14;6.60;99.90
58582;DHT22;44361;51.476;5.700;2023-02-24T16:04:41;6.70;99.90
58582;DHT22;44361;51.476;5.700;2023-02-24T16:07:16;6.70;99.90
58582;DHT22;44361;51.476;5.700;2023-02-24T16:09:42;6.70;99.90
58582;DHT22;44361;51.476;5.700;2023-02-24T16:12:15;6.60;99.90
58582;DHT22;44361;51.476;5.700;2023-02-24T16:14:43;6.60;99.90
58582;DHT22;44361;51.476;5.700;2023-02-24T16:17:24;6.50;99.90
58582;DHT22;44361;51.476;5.700;2023-02-24T16:19:51;6.40;99.90
58582;DHT22;44361;51.476;5.700;2023-02-24T16:22:16;6.30;99.90
58582;DHT22;44361;51.476;5.700;2023-02-24T16:24:42;6.30;99.90
58582;DHT22;44361;51.476;5.700;2023-02-24T16:27:15;6.30;99.90
58582;DHT22;44361;51.476;5.700;2023-02-24T16:29:41;6.30;99.90
58582;DHT22;44361;51.476;5.700;2023-02-24T16:32:11;6.20;99.90
58582;DHT22;44361;51.476;5.700;2023-02-24T16:34:37;6.20;99.90
58582;DHT22;44361;51.476;5.700;2023-02-24T16:37:09;6.10;99.90
58582;DHT22;44361;51.476;5.700;2023-02-24T16:39:39;6.00;99.90
58582;DHT22;44361;51.476;5.700;2023-02-24T16:42:05;5.90;99.90
58582;DHT22;44361;51.476;5.700;2023-02-24T16:44:31;5.90;99.90
58582;DHT22;44361;51.476;5.700;2023-02-24T16:46:57;5.90;99.90
58582;DHT22;44361;51.476;5.700;2023-02-24T16:49:22;5.80;99.90
58582;DHT22;44361;51.476;5.700;2023-02-24T16:51:48;5.80;99.90
58582;DHT22;44361;51.476;5.700;2023-02-24T16:54:13;5.80;99.90
58582;DHT22;44361;51.476;5.700;2023-02-24T16:56:39;5.90;99.90
58582;DHT22;44361;51.476;5.700;2023-02-24T16:59:05;5.90;99.90
58582;DHT22;44361;51.476;5.700;2023-02-24T17:01:30;6.00;99.90
58582;DHT22;44361;51.476;5.700;2023-02-24T17:03:56;6.10;99.90
58582;DHT22;44361;51.476;5.700;2023-02-24T17:06:22;6.10;99.90
58582;DHT22;44361;51.476;5.700;2023-02-24T17:08:49;6.20;99.90
58582;DHT22;44361;51.476;5.700;2023-02-24T17:11:19;6.20;99.90
58582;DHT22;44361;51.476;5.700;2023-02-24T17:13:45;6.20;99.90
58582;DHT22;44361;51.476;5.700;2023-02-24T17:16:12;6.20;99.90
58582;DHT22;44361;51.476;5.700;2023-02-24T17:18:37;6.20;99.90
58582;DHT22;44361;51.476;5.700;2023-02-24T17:21:03;6.20;99.90
58582;DHT22;44361;51.476;5.700;2023-02-24T17:23:29;6.20;99.90
58582;DHT22;44361;51.476;5.700;2023-02-24T17:25:59;6.20;99.90
58582;DHT22;44361;51.476;5.700;2023-02-24T17:28:25;6.20;99.90